sensor_id;sensor_type;location;lat;lon;timestamp;temperature;humidity
79187;SHT31;68762;51.980;5.646;2023-03-23T00:00:08;14.5;67.0
79187;SHT31;68762;51.980;5.646;2023-03-23T00:02:40;14.5;67.3
79187;SHT31;68762;51.980;5.646;2023-03-23T00:05:12;14.5;67.1
79187;SHT31;68762;51.980;5.646;2023-03-23T00:07:40;14.5;67.0
79187;SHT31;68762;51.980;5.646;2023-03-23T00:10:11;14.5;67.0
79187;SHT31;68762;51.980;5.646;2023-03-23T00:12:40;14.5;67.0
79187;SHT31;68762;51.980;5.646;2023-03-23T00:15:11;14.5;66.7
79187;SHT31;68762;51.980;5.646;2023-03-23T00:17:43;14.5;66.7
79187;SHT31;68762;51.980;5.646;2023-03-23T00:20:12;14.5;66.9
79187;SHT31;68762;51.980;5.646;2023-03-23T00:22:40;14.5;67.0
79187;SHT31;68762;51.980;5.646;2023-03-23T00:25:09;14.5;67.0
79187;SHT31;68762;51.980;5.646;2023-03-23T00:27:38;14.5;66.9
79187;SHT31;68762;51.980;5.646;2023-03-23T00:30:07;14.5;66.7
79187;SHT31;68762;51.980;5.646;2023-03-23T00:32:36;14.5;66.9
79187;SHT31;68762;51.980;5.646;2023-03-23T00:35:07;14.5;67.1
79187;SHT31;68762;51.980;5.646;2023-03-23T00:37:36;14.5;66.8
79187;SHT31;68762;51.980;5.646;2023-03-23T00:40:05;14.5;66.8
79187;SHT31;68762;51.980;5.646;2023-03-23T00:42:36;14.5;67.3
79187;SHT31;68762;51.980;5.646;2023-03-23T00:45:06;14.5;67.8
79187;SHT31;68762;51.980;5.646;2023-03-23T00:47:37;14.5;67.9
79187;SHT31;68762;51.980;5.646;2023-03-23T00:50:07;14.5;67.9
79187;SHT31;68762;51.980;5.646;2023-03-23T00:52:36;14.5;67.9
79187;SHT31;68762;51.980;5.646;2023-03-23T00:55:05;14.5;68.2
79187;SHT31;68762;51.980;5.646;2023-03-23T00:57:34;14.4;67.9
79187;SHT31;68762;51.980;5.646;2023-03-23T01:00:03;14.4;67.8
79187;SHT31;68762;51.980;5.646;2023-03-23T01:02:35;14.4;67.6
79187;SHT31;68762;51.980;5.646;2023-03-23T01:05:09;14.4;67.8
79187;SHT31;68762;51.980;5.646;2023-03-23T01:07:38;14.4;67.4
79187;SHT31;68762;51.980;5.646;2023-03-23T01:10:07;14.4;67.5
79187;SHT31;68762;51.980;5.646;2023-03-23T01:12:39;14.4;67.0
79187;SHT31;68762;51.980;5.646;2023-03-23T01:15:08;14.4;66.7
79187;SHT31;68762;51.980;5.646;2023-03-23T01:17:39;14.4;66.6
79187;SHT31;68762;51.980;5.646;2023-03-23T01:20:08;14.4;66.7
79187;SHT31;68762;51.980;5.646;2023-03-23T01:22:38;14.4;66.6
79187;SHT31;68762;51.980;5.646;2023-03-23T01:25:08;14.4;66.3
79187;SHT31;68762;51.980;5.646;2023-03-23T01:27:38;14.4;66.3
79187;SHT31;68762;51.980;5.646;2023-03-23T01:30:10;14.4;66.1
79187;SHT31;68762;51.980;5.646;2023-03-23T01:32:39;14.4;66.2
79187;SHT31;68762;51.980;5.646;2023-03-23T01:35:08;14.4;66.2
79187;SHT31;68762;51.980;5.646;2023-03-23T01:37:37;14.4;66.3
79187;SHT31;68762;51.980;5.646;2023-03-23T01:40:09;14.4;66.6
79187;SHT31;68762;51.980;5.646;2023-03-23T01:42:38;14.4;66.2
79187;SHT31;68762;51.980;5.646;2023-03-23T01:45:40;14.5;66.5
79187;SHT31;68762;51.980;5.646;2023-03-23T01:48:15;14.5;66.4
79187;SHT31;68762;51.980;5.646;2023-03-23T01:50:54;14.5;66.2
79187;SHT31;68762;51.980;5.646;2023-03-23T01:53:28;14.5;66.1
79187;SHT31;68762;51.980;5.646;2023-03-23T01:55:59;14.5;66.2
79187;SHT31;68762;51.980;5.646;2023-03-23T01:58:32;14.5;66.2
79187;SHT31;68762;51.980;5.646;2023-03-23T02:01:05;14.5;66.2
79187;SHT31;68762;51.980;5.646;2023-03-23T02:03:37;14.5;66.2
79187;SHT31;68762;51.980;5.646;2023-03-23T02:06:07;14.5;66.0
79187;SHT31;68762;51.980;5.646;2023-03-23T02:08:38;14.5;66.0
79187;SHT31;68762;51.980;5.646;2023-03-23T02:11:14;14.5;66.3
79187;SHT31;68762;51.980;5.646;2023-03-23T02:13:45;14.5;66.2
79187;SHT31;68762;51.980;5.646;2023-03-23T02:16:21;14.5;66.4
79187;SHT31;68762;51.980;5.646;2023-03-23T02:18:59;14.5;66.4
79187;SHT31;68762;51.980;5.646;2023-03-23T02:22:21;14.6;66.3
79187;SHT31;68762;51.980;5.646;2023-03-23T02:24:57;14.6;66.2
79187;SHT31;68762;51.980;5.646;2023-03-23T02:27:43;14.6;66.1
79187;SHT31;68762;51.980;5.646;2023-03-23T02:30:30;14.6;66.1
79187;SHT31;68762;51.980;5.646;2023-03-23T02:33:33;14.6;66.1
79187;SHT31;68762;51.980;5.646;2023-03-23T02:36:13;14.6;66.1
79187;SHT31;68762;51.980;5.646;2023-03-23T02:38:54;14.7;66.2
79187;SHT31;68762;51.980;5.646;2023-03-23T02:41:30;14.7;66.2
79187;SHT31;68762;51.980;5.646;2023-03-23T02:44:02;14.7;66.2
79187;SHT31;68762;51.980;5.646;2023-03-23T02:46:34;14.7;66.2
79187;SHT31;68762;51.980;5.646;2023-03-23T02:49:07;14.7;66.1
79187;SHT31;68762;51.980;5.646;2023-03-23T02:51:39;14.7;66.1
79187;SHT31;68762;51.980;5.646;2023-03-23T02:54:10;14.7;66.2
79187;SHT31;68762;51.980;5.646;2023-03-23T02:56:40;14.7;66.2
79187;SHT31;68762;51.980;5.646;2023-03-23T02:59:09;14.7;66.1
79187;SHT31;68762;51.980;5.646;2023-03-23T03:02:40;14.7;66.2
79187;SHT31;68762;51.980;5.646;2023-03-23T03:05:20;14.7;66.1
79187;SHT31;68762;51.980;5.646;2023-03-23T03:08:01;14.7;65.9
79187;SHT31;68762;51.980;5.646;2023-03-23T03:10:37;14.7;65.9
79187;SHT31;68762;51.980;5.646;2023-03-23T03:13:19;14.7;66.0
79187;SHT31;68762;51.980;5.646;2023-03-23T03:15:54;14.7;65.7
79187;SHT31;68762;51.980;5.646;2023-03-23T03:18:30;14.8;65.4
79187;SHT31;68762;51.980;5.646;2023-03-23T03:21:03;14.8;65.1
79187;SHT31;68762;51.980;5.646;2023-03-23T03:23:35;14.8;64.7
79187;SHT31;68762;51.980;5.646;2023-03-23T03:26:05;14.8;64.4
79187;SHT31;68762;51.980;5.646;2023-03-23T03:28:36;14.8;64.5
79187;SHT31;68762;51.980;5.646;2023-03-23T03:31:06;14.8;64.3
79187;SHT31;68762;51.980;5.646;2023-03-23T03:33:37;14.8;64.2
79187;SHT31;68762;51.980;5.646;2023-03-23T03:36:06;14.8;64.2
79187;SHT31;68762;51.980;5.646;2023-03-23T03:38:44;14.8;64.2
79187;SHT31;68762;51.980;5.646;2023-03-23T03:41:13;14.8;64.3
79187;SHT31;68762;51.980;5.646;2023-03-23T03:43:42;14.8;64.2
79187;SHT31;68762;51.980;5.646;2023-03-23T03:46:12;14.9;64.3
79187;SHT31;68762;51.980;5.646;2023-03-23T03:48:40;14.9;64.3
79187;SHT31;68762;51.980;5.646;2023-03-23T03:51:09;14.9;64.4
79187;SHT31;68762;51.980;5.646;2023-03-23T03:53:38;14.9;64.6
79187;SHT31;68762;51.980;5.646;2023-03-23T03:56:07;14.9;64.4
79187;SHT31;68762;51.980;5.646;2023-03-23T03:58:37;14.9;64.4
79187;SHT31;68762;51.980;5.646;2023-03-23T04:01:12;14.9;64.5
79187;SHT31;68762;51.980;5.646;2023-03-23T04:03:41;14.9;64.4
79187;SHT31;68762;51.980;5.646;2023-03-23T04:06:11;14.9;64.2
79187;SHT31;68762;51.980;5.646;2023-03-23T04:08:41;14.9;64.1
79187;SHT31;68762;51.980;5.646;2023-03-23T04:11:12;14.9;64.1
79187;SHT31;68762;51.980;5.646;2023-03-23T04:13:41;14.9;63.8
79187;SHT31;68762;51.980;5.646;2023-03-23T04:16:10;14.9;64.0
79187;SHT31;68762;51.980;5.646;2023-03-23T04:18:39;14.9;63.8
79187;SHT31;68762;51.980;5.646;2023-03-23T04:21:09;14.9;63.6
79187;SHT31;68762;51.980;5.646;2023-03-23T04:23:38;14.9;63.4
79187;SHT31;68762;51.980;5.646;2023-03-23T04:26:08;15.0;63.4
79187;SHT31;68762;51.980;5.646;2023-03-23T04:28:41;15.0;63.3
79187;SHT31;68762;51.980;5.646;2023-03-23T04:31:09;15.0;63.2
79187;SHT31;68762;51.980;5.646;2023-03-23T04:33:39;15.0;63.1
79187;SHT31;68762;51.980;5.646;2023-03-23T04:36:08;15.0;63.2
79187;SHT31;68762;51.980;5.646;2023-03-23T04:38:39;15.0;63.1
79187;SHT31;68762;51.980;5.646;2023-03-23T04:41:09;15.0;63.0
79187;SHT31;68762;51.980;5.646;2023-03-23T04:43:38;15.0;62.9
79187;SHT31;68762;51.980;5.646;2023-03-23T04:46:08;15.0;62.9
79187;SHT31;68762;51.980;5.646;2023-03-23T04:48:37;15.0;62.5
79187;SHT31;68762;51.980;5.646;2023-03-23T04:51:06;15.0;62.0
79187;SHT31;68762;51.980;5.646;2023-03-23T04:53:34;15.0;62.0
79187;SHT31;68762;51.980;5.646;2023-03-23T04:56:05;15.0;62.0
79187;SHT31;68762;51.980;5.646;2023-03-23T04:58:34;15.0;61.9
79187;SHT31;68762;51.980;5.646;2023-03-23T05:01:03;15.0;61.6
79187;SHT31;68762;51.980;5.646;2023-03-23T05:03:32;15.0;61.9
79187;SHT31;68762;51.980;5.646;2023-03-23T05:06:03;15.0;61.6
79187;SHT31;68762;51.980;5.646;2023-03-23T05:08:32;15.0;61.7
79187;SHT31;68762;51.980;5.646;2023-03-23T05:11:06;15.0;61.8
79187;SHT31;68762;51.980;5.646;2023-03-23T05:13:35;15.1;61.8
79187;SHT31;68762;51.980;5.646;2023-03-23T05:16:06;15.1;61.7
79187;SHT31;68762;51.980;5.646;2023-03-23T05:18:34;15.1;61.2
79187;SHT31;68762;51.980;5.646;2023-03-23T05:21:03;15.1;61.4
79187;SHT31;68762;51.980;5.646;2023-03-23T05:23:32;15.1;61.0
79187;SHT31;68762;51.980;5.646;2023-03-23T05:26:02;15.1;61.0
79187;SHT31;68762;51.980;5.646;2023-03-23T05:28:32;15.1;60.9
79187;SHT31;68762;51.980;5.646;2023-03-23T05:31:03;15.1;61.2
79187;SHT31;68762;51.980;5.646;2023-03-23T05:33:32;15.1;61.4
79187;SHT31;68762;51.980;5.646;2023-03-23T05:36:00;15.1;61.3
79187;SHT31;68762;51.980;5.646;2023-03-23T05:38:30;15.1;61.7
79187;SHT31;68762;51.980;5.646;2023-03-23T05:41:00;15.1;61.6
79187;SHT31;68762;51.980;5.646;2023-03-23T05:43:29;15.1;61.5
79187;SHT31;68762;51.980;5.646;2023-03-23T05:45:58;15.1;61.6
79187;SHT31;68762;51.980;5.646;2023-03-23T05:48:27;15.1;61.6
79187;SHT31;68762;51.980;5.646;2023-03-23T05:50:56;15.1;61.5
79187;SHT31;68762;51.980;5.646;2023-03-23T05:53:25;15.1;61.6
79187;SHT31;68762;51.980;5.646;2023-03-23T05:55:59;15.1;61.3
79187;SHT31;68762;51.980;5.646;2023-03-23T05:58:28;15.1;61.5
79187;SHT31;68762;51.980;5.646;2023-03-23T06:00:57;15.0;61.7
79187;SHT31;68762;51.980;5.646;2023-03-23T06:03:26;15.0;61.7
79187;SHT31;68762;51.980;5.646;2023-03-23T06:05:55;15.0;61.7
79187;SHT31;68762;51.980;5.646;2023-03-23T06:08:24;15.0;61.9
79187;SHT31;68762;51.980;5.646;2023-03-23T06:10:53;15.0;62.0
79187;SHT31;68762;51.980;5.646;2023-03-23T06:13:21;15.0;61.9
79187;SHT31;68762;51.980;5.646;2023-03-23T06:15:55;15.0;61.9
79187;SHT31;68762;51.980;5.646;2023-03-23T06:18:24;15.0;62.2
79187;SHT31;68762;51.980;5.646;2023-03-23T06:20:55;15.0;62.0
79187;SHT31;68762;51.980;5.646;2023-03-23T06:23:23;15.0;62.1
79187;SHT31;68762;51.980;5.646;2023-03-23T06:25:58;15.0;62.1
79187;SHT31;68762;51.980;5.646;2023-03-23T06:28:27;15.0;62.2
79187;SHT31;68762;51.980;5.646;2023-03-23T06:30:58;15.0;62.0
79187;SHT31;68762;51.980;5.646;2023-03-23T06:33:29;15.0;62.2
79187;SHT31;68762;51.980;5.646;2023-03-23T06:35:58;15.0;62.4
79187;SHT31;68762;51.980;5.646;2023-03-23T06:38:26;15.0;62.2
79187;SHT31;68762;51.980;5.646;2023-03-23T06:40:55;15.0;62.3
79187;SHT31;68762;51.980;5.646;2023-03-23T06:43:24;15.0;62.3
79187;SHT31;68762;51.980;5.646;2023-03-23T06:45:53;15.0;62.2
79187;SHT31;68762;51.980;5.646;2023-03-23T06:48:22;15.0;62.4
79187;SHT31;68762;51.980;5.646;2023-03-23T06:50:50;15.0;62.3
79187;SHT31;68762;51.980;5.646;2023-03-23T06:53:19;15.0;62.0
79187;SHT31;68762;51.980;5.646;2023-03-23T06:55:48;15.0;62.2
79187;SHT31;68762;51.980;5.646;2023-03-23T06:58:19;15.0;62.2
79187;SHT31;68762;51.980;5.646;2023-03-23T07:00:52;15.0;62.3
79187;SHT31;68762;51.980;5.646;2023-03-23T07:03:21;15.0;62.2
79187;SHT31;68762;51.980;5.646;2023-03-23T07:05:50;15.0;62.4
79187;SHT31;68762;51.980;5.646;2023-03-23T07:08:19;15.0;62.1
79187;SHT31;68762;51.980;5.646;2023-03-23T07:10:48;15.0;62.0
79187;SHT31;68762;51.980;5.646;2023-03-23T07:13:19;15.1;61.7
79187;SHT31;68762;51.980;5.646;2023-03-23T07:15:48;15.1;62.1
79187;SHT31;68762;51.980;5.646;2023-03-23T07:18:17;15.1;62.1
79187;SHT31;68762;51.980;5.646;2023-03-23T07:20:51;15.1;61.7
79187;SHT31;68762;51.980;5.646;2023-03-23T07:23:20;15.1;62.1
79187;SHT31;68762;51.980;5.646;2023-03-23T07:25:48;15.1;62.0
79187;SHT31;68762;51.980;5.646;2023-03-23T07:28:18;15.1;62.1
79187;SHT31;68762;51.980;5.646;2023-03-23T07:30:47;15.1;62.5
79187;SHT31;68762;51.980;5.646;2023-03-23T07:33:16;15.1;62.1
79187;SHT31;68762;51.980;5.646;2023-03-23T07:35:44;15.2;62.3
79187;SHT31;68762;51.980;5.646;2023-03-23T07:38:14;15.2;62.3
79187;SHT31;68762;51.980;5.646;2023-03-23T07:40:43;15.2;62.5
79187;SHT31;68762;51.980;5.646;2023-03-23T07:43:11;15.2;62.0
79187;SHT31;68762;51.980;5.646;2023-03-23T07:45:40;15.2;61.8
79187;SHT31;68762;51.980;5.646;2023-03-23T07:48:08;15.1;61.8
79187;SHT31;68762;51.980;5.646;2023-03-23T07:50:39;15.1;62.2
79187;SHT31;68762;51.980;5.646;2023-03-23T07:53:08;15.1;63.0
79187;SHT31;68762;51.980;5.646;2023-03-23T07:55:37;15.1;63.2
79187;SHT31;68762;51.980;5.646;2023-03-23T07:58:07;15.1;63.3
79187;SHT31;68762;51.980;5.646;2023-03-23T08:00:37;15.1;63.7
79187;SHT31;68762;51.980;5.646;2023-03-23T08:03:06;15.0;63.8
79187;SHT31;68762;51.980;5.646;2023-03-23T08:05:35;15.0;64.3
79187;SHT31;68762;51.980;5.646;2023-03-23T08:08:04;15.0;64.5
79187;SHT31;68762;51.980;5.646;2023-03-23T08:10:33;14.9;64.9
79187;SHT31;68762;51.980;5.646;2023-03-23T08:13:02;14.9;65.1
79187;SHT31;68762;51.980;5.646;2023-03-23T08:15:33;14.9;65.9
79187;SHT31;68762;51.980;5.646;2023-03-23T08:18:03;14.8;66.2
79187;SHT31;68762;51.980;5.646;2023-03-23T08:20:35;14.7;66.8
79187;SHT31;68762;51.980;5.646;2023-03-23T08:23:04;14.7;67.1
79187;SHT31;68762;51.980;5.646;2023-03-23T08:25:34;14.6;66.8
79187;SHT31;68762;51.980;5.646;2023-03-23T08:28:03;14.6;66.9
79187;SHT31;68762;51.980;5.646;2023-03-23T08:30:32;14.6;67.2
79187;SHT31;68762;51.980;5.646;2023-03-23T08:33:02;14.5;66.6
79187;SHT31;68762;51.980;5.646;2023-03-23T08:35:32;14.5;67.1
79187;SHT31;68762;51.980;5.646;2023-03-23T08:38:02;14.5;67.5
79187;SHT31;68762;51.980;5.646;2023-03-23T08:40:33;14.5;66.4
79187;SHT31;68762;51.980;5.646;2023-03-23T08:43:03;14.5;66.3
79187;SHT31;68762;51.980;5.646;2023-03-23T08:45:32;14.6;66.4
79187;SHT31;68762;51.980;5.646;2023-03-23T08:48:03;14.6;66.2
79187;SHT31;68762;51.980;5.646;2023-03-23T08:50:34;14.6;66.1
79187;SHT31;68762;51.980;5.646;2023-03-23T08:53:03;14.6;65.1
79187;SHT31;68762;51.980;5.646;2023-03-23T08:55:32;14.6;64.8
79187;SHT31;68762;51.980;5.646;2023-03-23T08:58:01;14.7;64.9
79187;SHT31;68762;51.980;5.646;2023-03-23T09:00:31;14.7;64.7
79187;SHT31;68762;51.980;5.646;2023-03-23T09:02:59;14.8;64.6
79187;SHT31;68762;51.980;5.646;2023-03-23T09:05:30;14.8;64.4
79187;SHT31;68762;51.980;5.646;2023-03-23T09:07:59;14.8;64.4
79187;SHT31;68762;51.980;5.646;2023-03-23T09:10:30;14.8;64.1
79187;SHT31;68762;51.980;5.646;2023-03-23T09:12:59;14.9;63.8
79187;SHT31;68762;51.980;5.646;2023-03-23T09:15:28;15.0;63.4
79187;SHT31;68762;51.980;5.646;2023-03-23T09:17:57;15.2;62.9
79187;SHT31;68762;51.980;5.646;2023-03-23T09:20:28;15.3;61.8
79187;SHT31;68762;51.980;5.646;2023-03-23T09:22:57;15.4;61.3
79187;SHT31;68762;51.980;5.646;2023-03-23T09:25:27;15.5;61.6
79187;SHT31;68762;51.980;5.646;2023-03-23T09:27:58;15.6;60.3
79187;SHT31;68762;51.980;5.646;2023-03-23T09:30:29;15.7;60.1
79187;SHT31;68762;51.980;5.646;2023-03-23T09:33:00;15.8;59.6
79187;SHT31;68762;51.980;5.646;2023-03-23T09:35:30;15.9;58.8
79187;SHT31;68762;51.980;5.646;2023-03-23T09:38:01;16.0;58.7
79187;SHT31;68762;51.980;5.646;2023-03-23T09:40:40;16.0;59.2
79187;SHT31;68762;51.980;5.646;2023-03-23T09:43:21;16.2;59.7
79187;SHT31;68762;51.980;5.646;2023-03-23T09:46:03;16.6;57.6
79187;SHT31;68762;51.980;5.646;2023-03-23T09:48:45;17.0;55.3
79187;SHT31;68762;51.980;5.646;2023-03-23T09:51:21;17.4;55.1
79187;SHT31;68762;51.980;5.646;2023-03-23T09:53:55;17.8;54.0
79187;SHT31;68762;51.980;5.646;2023-03-23T09:56:29;18.3;52.2
79187;SHT31;68762;51.980;5.646;2023-03-23T09:59:02;18.4;50.3
79187;SHT31;68762;51.980;5.646;2023-03-23T10:01:36;18.6;50.0
79187;SHT31;68762;51.980;5.646;2023-03-23T10:04:12;18.7;51.2
79187;SHT31;68762;51.980;5.646;2023-03-23T10:06:43;18.9;50.7
79187;SHT31;68762;51.980;5.646;2023-03-23T10:09:16;19.2;48.8
79187;SHT31;68762;51.980;5.646;2023-03-23T10:11:58;19.6;47.5
79187;SHT31;68762;51.980;5.646;2023-03-23T10:14:37;19.9;46.3
79187;SHT31;68762;51.980;5.646;2023-03-23T10:17:14;20.1;46.0
79187;SHT31;68762;51.980;5.646;2023-03-23T10:19:47;20.3;46.3
79187;SHT31;68762;51.980;5.646;2023-03-23T10:22:26;20.4;45.3
79187;SHT31;68762;51.980;5.646;2023-03-23T10:25:02;20.5;45.5
79187;SHT31;68762;51.980;5.646;2023-03-23T10:27:37;20.6;43.7
79187;SHT31;68762;51.980;5.646;2023-03-23T10:30:15;20.6;43.7
79187;SHT31;68762;51.980;5.646;2023-03-23T10:32:51;20.6;45.7
79187;SHT31;68762;51.980;5.646;2023-03-23T10:35:26;20.6;44.3
79187;SHT31;68762;51.980;5.646;2023-03-23T10:38:00;20.6;43.5
79187;SHT31;68762;51.980;5.646;2023-03-23T10:40:31;20.5;42.9
79187;SHT31;68762;51.980;5.646;2023-03-23T10:42:59;20.4;43.5
79187;SHT31;68762;51.980;5.646;2023-03-23T10:45:30;20.3;43.6
79187;SHT31;68762;51.980;5.646;2023-03-23T10:48:08;20.2;43.8
79187;SHT31;68762;51.980;5.646;2023-03-23T10:50:40;20.2;44.3
79187;SHT31;68762;51.980;5.646;2023-03-23T10:53:16;20.1;43.7
79187;SHT31;68762;51.980;5.646;2023-03-23T10:55:46;20.0;43.8
79187;SHT31;68762;51.980;5.646;2023-03-23T10:58:25;20.0;43.7
79187;SHT31;68762;51.980;5.646;2023-03-23T11:00:56;19.9;43.0
79187;SHT31;68762;51.980;5.646;2023-03-23T11:03:48;19.9;43.9
79187;SHT31;68762;51.980;5.646;2023-03-23T11:06:24;19.8;44.0
79187;SHT31;68762;51.980;5.646;2023-03-23T11:08:57;19.8;44.2
79187;SHT31;68762;51.980;5.646;2023-03-23T11:11:29;19.7;43.2
79187;SHT31;68762;51.980;5.646;2023-03-23T11:14:00;19.6;42.6
79187;SHT31;68762;51.980;5.646;2023-03-23T11:16:32;19.5;43.4
79187;SHT31;68762;51.980;5.646;2023-03-23T11:19:13;19.5;43.3
79187;SHT31;68762;51.980;5.646;2023-03-23T11:21:47;19.4;44.5
79187;SHT31;68762;51.980;5.646;2023-03-23T11:24:16;19.4;45.0
79187;SHT31;68762;51.980;5.646;2023-03-23T11:26:45;19.3;45.5
79187;SHT31;68762;51.980;5.646;2023-03-23T11:29:17;19.2;45.2
79187;SHT31;68762;51.980;5.646;2023-03-23T11:31:48;19.0;45.9
79187;SHT31;68762;51.980;5.646;2023-03-23T11:34:21;18.9;47.4
79187;SHT31;68762;51.980;5.646;2023-03-23T11:36:52;18.8;46.8
79187;SHT31;68762;51.980;5.646;2023-03-23T11:39:24;18.7;46.9
79187;SHT31;68762;51.980;5.646;2023-03-23T11:41:55;18.6;47.7
79187;SHT31;68762;51.980;5.646;2023-03-23T11:44:33;18.6;46.8
79187;SHT31;68762;51.980;5.646;2023-03-23T11:47:10;18.6;47.5
79187;SHT31;68762;51.980;5.646;2023-03-23T11:49:53;18.6;46.5
79187;SHT31;68762;51.980;5.646;2023-03-23T11:52:32;18.6;45.8
79187;SHT31;68762;51.980;5.646;2023-03-23T11:55:11;18.6;46.4
79187;SHT31;68762;51.980;5.646;2023-03-23T11:57:42;18.6;47.3
79187;SHT31;68762;51.980;5.646;2023-03-23T12:00:17;18.6;47.0
79187;SHT31;68762;51.980;5.646;2023-03-23T12:02:54;18.6;46.3
79187;SHT31;68762;51.980;5.646;2023-03-23T12:05:33;18.6;45.7
79187;SHT31;68762;51.980;5.646;2023-03-23T12:08:12;18.7;45.6
79187;SHT31;68762;51.980;5.646;2023-03-23T12:10:49;18.7;45.8
79187;SHT31;68762;51.980;5.646;2023-03-23T12:13:42;18.8;45.2
79187;SHT31;68762;51.980;5.646;2023-03-23T12:16:26;18.8;45.9
79187;SHT31;68762;51.980;5.646;2023-03-23T12:19:06;18.8;46.6
79187;SHT31;68762;51.980;5.646;2023-03-23T12:21:47;18.7;48.3
79187;SHT31;68762;51.980;5.646;2023-03-23T12:24:34;18.6;50.6
79187;SHT31;68762;51.980;5.646;2023-03-23T12:27:14;18.3;51.1
79187;SHT31;68762;51.980;5.646;2023-03-23T12:29:56;18.0;52.2
79187;SHT31;68762;51.980;5.646;2023-03-23T12:32:52;17.7;53.3
79187;SHT31;68762;51.980;5.646;2023-03-23T12:35:32;17.4;55.3
79187;SHT31;68762;51.980;5.646;2023-03-23T12:38:16;17.0;56.1
79187;SHT31;68762;51.980;5.646;2023-03-23T12:41:13;16.7;57.7
79187;SHT31;68762;51.980;5.646;2023-03-23T12:43:49;16.4;59.5
79187;SHT31;68762;51.980;5.646;2023-03-23T12:46:44;16.2;60.7
79187;SHT31;68762;51.980;5.646;2023-03-23T12:49:21;16.1;61.3
79187;SHT31;68762;51.980;5.646;2023-03-23T12:51:57;16.0;62.0
79187;SHT31;68762;51.980;5.646;2023-03-23T12:54:31;15.9;61.5
79187;SHT31;68762;51.980;5.646;2023-03-23T12:57:06;15.9;62.8
79187;SHT31;68762;51.980;5.646;2023-03-23T12:59:42;15.9;62.2
79187;SHT31;68762;51.980;5.646;2023-03-23T13:02:18;15.8;61.3
79187;SHT31;68762;51.980;5.646;2023-03-23T13:04:52;15.8;61.2
79187;SHT31;68762;51.980;5.646;2023-03-23T13:07:28;15.9;62.5
79187;SHT31;68762;51.980;5.646;2023-03-23T13:10:04;15.9;61.7
79187;SHT31;68762;51.980;5.646;2023-03-23T13:12:37;15.9;60.5
79187;SHT31;68762;51.980;5.646;2023-03-23T13:15:18;16.0;60.0
79187;SHT31;68762;51.980;5.646;2023-03-23T13:17:54;16.2;60.7
79187;SHT31;68762;51.980;5.646;2023-03-23T13:20:57;16.6;57.7
79187;SHT31;68762;51.980;5.646;2023-03-23T13:23:31;17.4;56.8
79187;SHT31;68762;51.980;5.646;2023-03-23T13:26:03;18.3;52.1
79187;SHT31;68762;51.980;5.646;2023-03-23T13:28:49;19.0;51.5
79187;SHT31;68762;51.980;5.646;2023-03-23T13:31:21;19.8;49.7
79187;SHT31;68762;51.980;5.646;2023-03-23T13:33:59;20.6;48.2
79187;SHT31;68762;51.980;5.646;2023-03-23T13:36:31;21.3;45.0
79187;SHT31;68762;51.980;5.646;2023-03-23T13:39:04;21.6;43.2
79187;SHT31;68762;51.980;5.646;2023-03-23T13:41:47;21.7;42.9
79187;SHT31;68762;51.980;5.646;2023-03-23T13:44:19;21.6;42.9
79187;SHT31;68762;51.980;5.646;2023-03-23T13:47:14;21.3;43.5
79187;SHT31;68762;51.980;5.646;2023-03-23T13:49:52;21.0;44.4
79187;SHT31;68762;51.980;5.646;2023-03-23T13:52:35;20.7;45.2
79187;SHT31;68762;51.980;5.646;2023-03-23T13:55:20;20.4;46.0
79187;SHT31;68762;51.980;5.646;2023-03-23T13:57:54;20.1;47.3
79187;SHT31;68762;51.980;5.646;2023-03-23T14:00:36;19.9;48.1
79187;SHT31;68762;51.980;5.646;2023-03-23T14:03:13;19.7;50.1
79187;SHT31;68762;51.980;5.646;2023-03-23T14:05:44;19.5;48.6
79187;SHT31;68762;51.980;5.646;2023-03-23T14:08:24;19.3;50.2
79187;SHT31;68762;51.980;5.646;2023-03-23T14:10:55;19.2;50.2
79187;SHT31;68762;51.980;5.646;2023-03-23T14:13:42;19.0;50.8
79187;SHT31;68762;51.980;5.646;2023-03-23T14:16:16;18.8;51.9
79187;SHT31;68762;51.980;5.646;2023-03-23T14:18:52;18.7;52.1
79187;SHT31;68762;51.980;5.646;2023-03-23T14:21:35;18.6;52.8
79187;SHT31;68762;51.980;5.646;2023-03-23T14:24:11;18.5;52.9
79187;SHT31;68762;51.980;5.646;2023-03-23T14:26:40;18.4;52.1
79187;SHT31;68762;51.980;5.646;2023-03-23T14:29:12;18.3;51.5
79187;SHT31;68762;51.980;5.646;2023-03-23T14:31:41;18.2;50.4
79187;SHT31;68762;51.980;5.646;2023-03-23T14:34:14;18.2;50.8
79187;SHT31;68762;51.980;5.646;2023-03-23T14:36:44;18.2;50.4
79187;SHT31;68762;51.980;5.646;2023-03-23T14:39:20;18.3;50.3
79187;SHT31;68762;51.980;5.646;2023-03-23T14:41:51;18.6;50.3
79187;SHT31;68762;51.980;5.646;2023-03-23T14:44:24;19.2;50.1
79187;SHT31;68762;51.980;5.646;2023-03-23T14:46:56;19.7;48.3
79187;SHT31;68762;51.980;5.646;2023-03-23T14:49:31;20.1;46.9
79187;SHT31;68762;51.980;5.646;2023-03-23T14:52:08;20.4;45.6
79187;SHT31;68762;51.980;5.646;2023-03-23T14:54:38;20.7;43.7
79187;SHT31;68762;51.980;5.646;2023-03-23T14:57:13;21.0;42.8
79187;SHT31;68762;51.980;5.646;2023-03-23T14:59:45;21.2;43.0
79187;SHT31;68762;51.980;5.646;2023-03-23T15:02:16;21.4;42.9
79187;SHT31;68762;51.980;5.646;2023-03-23T15:04:51;21.7;41.3
79187;SHT31;68762;51.980;5.646;2023-03-23T15:07:25;21.9;41.0
79187;SHT31;68762;51.980;5.646;2023-03-23T15:09:54;22.1;40.7
79187;SHT31;68762;51.980;5.646;2023-03-23T15:12:27;22.2;40.7
79187;SHT31;68762;51.980;5.646;2023-03-23T15:14:59;22.2;39.6
79187;SHT31;68762;51.980;5.646;2023-03-23T15:17:30;22.3;39.4
79187;SHT31;68762;51.980;5.646;2023-03-23T15:20:11;22.2;39.3
79187;SHT31;68762;51.980;5.646;2023-03-23T15:22:47;22.1;40.2
79187;SHT31;68762;51.980;5.646;2023-03-23T15:25:21;22.0;40.1
79187;SHT31;68762;51.980;5.646;2023-03-23T15:27:54;21.9;40.5
79187;SHT31;68762;51.980;5.646;2023-03-23T15:30:31;21.9;41.1
79187;SHT31;68762;51.980;5.646;2023-03-23T15:33:09;21.9;41.5
79187;SHT31;68762;51.980;5.646;2023-03-23T15:35:40;21.9;41.2
79187;SHT31;68762;51.980;5.646;2023-03-23T15:38:19;21.8;40.6
79187;SHT31;68762;51.980;5.646;2023-03-23T15:40:51;21.6;40.6
79187;SHT31;68762;51.980;5.646;2023-03-23T15:43:22;21.4;40.9
79187;SHT31;68762;51.980;5.646;2023-03-23T15:45:58;21.1;41.6
79187;SHT31;68762;51.980;5.646;2023-03-23T15:48:31;20.9;42.2
79187;SHT31;68762;51.980;5.646;2023-03-23T15:51:03;20.7;43.0
79187;SHT31;68762;51.980;5.646;2023-03-23T15:53:34;20.6;44.2
79187;SHT31;68762;51.980;5.646;2023-03-23T15:56:06;20.5;43.7
79187;SHT31;68762;51.980;5.646;2023-03-23T15:58:36;20.5;44.3
79187;SHT31;68762;51.980;5.646;2023-03-23T16:01:10;20.3;44.1
79187;SHT31;68762;51.980;5.646;2023-03-23T16:03:43;20.2;44.8
79187;SHT31;68762;51.980;5.646;2023-03-23T16:06:15;20.1;46.1
79187;SHT31;68762;51.980;5.646;2023-03-23T16:08:44;19.9;46.3
79187;SHT31;68762;51.980;5.646;2023-03-23T16:11:14;19.8;45.9
79187;SHT31;68762;51.980;5.646;2023-03-23T16:13:44;19.7;46.8
79187;SHT31;68762;51.980;5.646;2023-03-23T16:16:16;19.6;46.5
79187;SHT31;68762;51.980;5.646;2023-03-23T16:18:45;19.5;47.0
79187;SHT31;68762;51.980;5.646;2023-03-23T16:21:14;19.5;47.2
79187;SHT31;68762;51.980;5.646;2023-03-23T16:23:42;19.4;47.5
79187;SHT31;68762;51.980;5.646;2023-03-23T16:26:13;19.3;47.1
79187;SHT31;68762;51.980;5.646;2023-03-23T16:28:42;19.2;47.2
79187;SHT31;68762;51.980;5.646;2023-03-23T16:31:11;19.1;47.1
79187;SHT31;68762;51.980;5.646;2023-03-23T16:33:43;19.0;47.6
79187;SHT31;68762;51.980;5.646;2023-03-23T16:36:12;18.9;47.5
79187;SHT31;68762;51.980;5.646;2023-03-23T16:38:41;18.8;48.1